Terminal Aerodrome Forecast
Issued by NWS

Home | Current Version | Previous Version | Graphics & Text | Print | Product List | Glossary On
Versions: 1 2 3 4 5 6 7 8 9 10 11 12 13 14 15 16 17
000
FTUS43 KUNR 041600 AAA
TAFGCC
TAF AMD
KGCC 041606Z 0416/0512 30012KT P6SM BKN035
     FM042100 27010KT P6SM SCT040
     FM050000 22008KT P6SM SCT250=

USA.gov is the U.S. government's official web portal to all federal, state and local government web resources and services.